sensor_id;sensor_type;location;lat;lon;timestamp;P1;durP1;ratioP1;P2;durP2;ratioP2
20140;SDS011;10231;47.702;9.826;2023-02-15T00:02:26;31.53;;;19.23;;
20140;SDS011;10231;47.702;9.826;2023-02-15T00:04:52;28.63;;;17.77;;
20140;SDS011;10231;47.702;9.826;2023-02-15T00:07:18;29.67;;;18.03;;
20140;SDS011;10231;47.702;9.826;2023-02-15T00:09:45;28.60;;;18.17;;
20140;SDS011;10231;47.702;9.826;2023-02-15T00:12:11;28.53;;;18.43;;
20140;SDS011;10231;47.702;9.826;2023-02-15T00:14:36;29.30;;;19.07;;
20140;SDS011;10231;47.702;9.826;2023-02-15T00:17:02;31.70;;;19.03;;
20140;SDS011;10231;47.702;9.826;2023-02-15T00:19:28;30.27;;;20.83;;
20140;SDS011;10231;47.702;9.826;2023-02-15T00:21:54;28.33;;;19.10;;
20140;SDS011;10231;47.702;9.826;2023-02-15T00:24:19;28.83;;;18.30;;
20140;SDS011;10231;47.702;9.826;2023-02-15T00:26:45;26.77;;;18.00;;
20140;SDS011;10231;47.702;9.826;2023-02-15T00:29:12;27.57;;;18.27;;
20140;SDS011;10231;47.702;9.826;2023-02-15T00:31:39;26.87;;;17.23;;
20140;SDS011;10231;47.702;9.826;2023-02-15T00:34:06;28.63;;;18.40;;
20140;SDS011;10231;47.702;9.826;2023-02-15T00:36:35;31.20;;;18.50;;
20140;SDS011;10231;47.702;9.826;2023-02-15T00:39:01;29.70;;;18.43;;
20140;SDS011;10231;47.702;9.826;2023-02-15T00:41:26;30.07;;;17.90;;
20140;SDS011;10231;47.702;9.826;2023-02-15T00:43:52;31.23;;;18.93;;
20140;SDS011;10231;47.702;9.826;2023-02-15T00:46:17;29.77;;;18.67;;
20140;SDS011;10231;47.702;9.826;2023-02-15T00:48:43;28.20;;;17.70;;
20140;SDS011;10231;47.702;9.826;2023-02-15T00:51:08;27.00;;;17.13;;
20140;SDS011;10231;47.702;9.826;2023-02-15T00:53:34;26.70;;;17.47;;
20140;SDS011;10231;47.702;9.826;2023-02-15T00:56:00;31.97;;;17.53;;
20140;SDS011;10231;47.702;9.826;2023-02-15T00:58:25;28.70;;;16.73;;
20140;SDS011;10231;47.702;9.826;2023-02-15T01:00:51;29.10;;;17.27;;
20140;SDS011;10231;47.702;9.826;2023-02-15T01:03:17;28.73;;;18.03;;
20140;SDS011;10231;47.702;9.826;2023-02-15T01:05:44;29.47;;;16.30;;
20140;SDS011;10231;47.702;9.826;2023-02-15T01:08:11;25.33;;;17.93;;
20140;SDS011;10231;47.702;9.826;2023-02-15T01:10:37;27.30;;;16.73;;
20140;SDS011;10231;47.702;9.826;2023-02-15T01:13:02;29.10;;;16.87;;
20140;SDS011;10231;47.702;9.826;2023-02-15T01:15:28;26.73;;;17.73;;
20140;SDS011;10231;47.702;9.826;2023-02-15T01:17:55;27.30;;;17.90;;
20140;SDS011;10231;47.702;9.826;2023-02-15T01:20:21;29.57;;;18.23;;
20140;SDS011;10231;47.702;9.826;2023-02-15T01:22:49;27.97;;;18.37;;
20140;SDS011;10231;47.702;9.826;2023-02-15T01:25:18;28.40;;;17.93;;
20140;SDS011;10231;47.702;9.826;2023-02-15T01:27:44;28.07;;;17.63;;
20140;SDS011;10231;47.702;9.826;2023-02-15T01:30:10;27.13;;;17.57;;
20140;SDS011;10231;47.702;9.826;2023-02-15T01:32:36;28.73;;;17.90;;
20140;SDS011;10231;47.702;9.826;2023-02-15T01:35:02;28.90;;;17.47;;
20140;SDS011;10231;47.702;9.826;2023-02-15T01:37:29;32.77;;;19.20;;
20140;SDS011;10231;47.702;9.826;2023-02-15T01:39:56;28.93;;;18.13;;
20140;SDS011;10231;47.702;9.826;2023-02-15T01:42:22;28.37;;;18.40;;
20140;SDS011;10231;47.702;9.826;2023-02-15T01:47:41;26.40;;;17.90;;
20140;SDS011;10231;47.702;9.826;2023-02-15T01:50:17;26.47;;;17.93;;
20140;SDS011;10231;47.702;9.826;2023-02-15T01:52:51;28.77;;;17.23;;
20140;SDS011;10231;47.702;9.826;2023-02-15T01:55:29;28.47;;;18.03;;
20140;SDS011;10231;47.702;9.826;2023-02-15T01:57:59;26.03;;;17.43;;
20140;SDS011;10231;47.702;9.826;2023-02-15T02:00:25;26.40;;;17.10;;
20140;SDS011;10231;47.702;9.826;2023-02-15T02:02:52;25.23;;;17.63;;
20140;SDS011;10231;47.702;9.826;2023-02-15T02:05:19;28.30;;;18.70;;
20140;SDS011;10231;47.702;9.826;2023-02-15T02:07:45;26.60;;;17.53;;
20140;SDS011;10231;47.702;9.826;2023-02-15T02:10:14;28.00;;;18.90;;
20140;SDS011;10231;47.702;9.826;2023-02-15T02:12:42;28.37;;;17.87;;
20140;SDS011;10231;47.702;9.826;2023-02-15T02:15:10;24.83;;;16.67;;
20140;SDS011;10231;47.702;9.826;2023-02-15T02:31:31;24.13;;;16.53;;
20140;SDS011;10231;47.702;9.826;2023-02-15T02:36:55;25.40;;;17.50;;
20140;SDS011;10231;47.702;9.826;2023-02-15T02:39:42;24.37;;;16.57;;
20140;SDS011;10231;47.702;9.826;2023-02-15T02:42:26;24.07;;;16.70;;
20140;SDS011;10231;47.702;9.826;2023-02-15T02:45:03;25.53;;;17.03;;
20140;SDS011;10231;47.702;9.826;2023-02-15T02:48:07;26.43;;;18.10;;
20140;SDS011;10231;47.702;9.826;2023-02-15T02:50:29;25.53;;;16.63;;
20140;SDS011;10231;47.702;9.826;2023-02-15T02:52:56;22.43;;;16.20;;
20140;SDS011;10231;47.702;9.826;2023-02-15T02:58:11;23.47;;;15.77;;
20140;SDS011;10231;47.702;9.826;2023-02-15T03:00:44;23.60;;;16.47;;
20140;SDS011;10231;47.702;9.826;2023-02-15T03:03:24;19.50;;;15.17;;
20140;SDS011;10231;47.702;9.826;2023-02-15T03:05:54;19.40;;;15.27;;
20140;SDS011;10231;47.702;9.826;2023-02-15T03:08:25;19.53;;;14.03;;
20140;SDS011;10231;47.702;9.826;2023-02-15T03:10:55;17.67;;;14.13;;
20140;SDS011;10231;47.702;9.826;2023-02-15T03:13:24;19.43;;;14.63;;
20140;SDS011;10231;47.702;9.826;2023-02-15T03:15:50;19.53;;;15.17;;
20140;SDS011;10231;47.702;9.826;2023-02-15T03:18:36;18.80;;;13.43;;
20140;SDS011;10231;47.702;9.826;2023-02-15T03:21:06;18.93;;;14.67;;
20140;SDS011;10231;47.702;9.826;2023-02-15T03:23:34;18.73;;;14.70;;
20140;SDS011;10231;47.702;9.826;2023-02-15T03:26:03;19.80;;;13.67;;
20140;SDS011;10231;47.702;9.826;2023-02-15T03:28:33;19.00;;;14.77;;
20140;SDS011;10231;47.702;9.826;2023-02-15T03:31:05;22.00;;;14.47;;
20140;SDS011;10231;47.702;9.826;2023-02-15T03:33:33;20.50;;;16.00;;
20140;SDS011;10231;47.702;9.826;2023-02-15T03:36:18;22.63;;;17.07;;
20140;SDS011;10231;47.702;9.826;2023-02-15T03:41:35;22.63;;;16.33;;
20140;SDS011;10231;47.702;9.826;2023-02-15T03:44:26;22.73;;;15.67;;
20140;SDS011;10231;47.702;9.826;2023-02-15T03:46:56;27.43;;;17.40;;
20140;SDS011;10231;47.702;9.826;2023-02-15T03:49:28;29.70;;;17.17;;
20140;SDS011;10231;47.702;9.826;2023-02-15T03:52:01;40.10;;;19.63;;
20140;SDS011;10231;47.702;9.826;2023-02-15T03:54:30;35.50;;;19.13;;
20140;SDS011;10231;47.702;9.826;2023-02-15T03:57:15;37.50;;;18.83;;
20140;SDS011;10231;47.702;9.826;2023-02-15T04:00:21;36.87;;;18.90;;
20140;SDS011;10231;47.702;9.826;2023-02-15T04:05:57;42.80;;;19.30;;
20140;SDS011;10231;47.702;9.826;2023-02-15T04:08:22;45.53;;;19.33;;
20140;SDS011;10231;47.702;9.826;2023-02-15T04:11:08;31.93;;;18.03;;
20140;SDS011;10231;47.702;9.826;2023-02-15T04:13:33;30.37;;;16.97;;
20140;SDS011;10231;47.702;9.826;2023-02-15T04:15:59;42.90;;;18.00;;
20140;SDS011;10231;47.702;9.826;2023-02-15T04:18:27;25.37;;;16.50;;
20140;SDS011;10231;47.702;9.826;2023-02-15T04:21:13;33.07;;;17.73;;
20140;SDS011;10231;47.702;9.826;2023-02-15T04:23:57;28.13;;;17.27;;
20140;SDS011;10231;47.702;9.826;2023-02-15T04:26:41;29.77;;;16.07;;
20140;SDS011;10231;47.702;9.826;2023-02-15T04:29:06;38.20;;;17.57;;
20140;SDS011;10231;47.702;9.826;2023-02-15T04:31:32;38.77;;;16.17;;
20140;SDS011;10231;47.702;9.826;2023-02-15T04:33:57;49.67;;;17.40;;
20140;SDS011;10231;47.702;9.826;2023-02-15T04:36:23;31.53;;;15.50;;
20140;SDS011;10231;47.702;9.826;2023-02-15T04:38:48;26.57;;;16.23;;
20140;SDS011;10231;47.702;9.826;2023-02-15T04:41:14;33.03;;;16.00;;
20140;SDS011;10231;47.702;9.826;2023-02-15T04:43:39;43.20;;;17.43;;
20140;SDS011;10231;47.702;9.826;2023-02-15T04:46:05;39.13;;;18.40;;
20140;SDS011;10231;47.702;9.826;2023-02-15T04:48:30;24.07;;;15.70;;
20140;SDS011;10231;47.702;9.826;2023-02-15T04:50:56;28.13;;;16.43;;
20140;SDS011;10231;47.702;9.826;2023-02-15T04:53:21;21.90;;;15.37;;
20140;SDS011;10231;47.702;9.826;2023-02-15T04:55:47;23.80;;;14.10;;
20140;SDS011;10231;47.702;9.826;2023-02-15T04:58:13;19.93;;;14.63;;
20140;SDS011;10231;47.702;9.826;2023-02-15T05:00:38;26.33;;;15.50;;
20140;SDS011;10231;47.702;9.826;2023-02-15T05:03:04;27.83;;;15.47;;
20140;SDS011;10231;47.702;9.826;2023-02-15T05:05:29;21.40;;;14.77;;
20140;SDS011;10231;47.702;9.826;2023-02-15T05:07:55;37.60;;;14.40;;
20140;SDS011;10231;47.702;9.826;2023-02-15T05:10:21;50.73;;;16.63;;
20140;SDS011;10231;47.702;9.826;2023-02-15T05:12:46;42.20;;;16.57;;
20140;SDS011;10231;47.702;9.826;2023-02-15T05:15:12;39.30;;;17.03;;
20140;SDS011;10231;47.702;9.826;2023-02-15T05:17:38;26.10;;;15.60;;
20140;SDS011;10231;47.702;9.826;2023-02-15T05:20:03;26.97;;;15.70;;
20140;SDS011;10231;47.702;9.826;2023-02-15T05:22:29;32.37;;;14.13;;
20140;SDS011;10231;47.702;9.826;2023-02-15T05:24:55;27.90;;;15.10;;
20140;SDS011;10231;47.702;9.826;2023-02-15T05:27:39;29.73;;;14.10;;
20140;SDS011;10231;47.702;9.826;2023-02-15T05:30:23;23.23;;;14.53;;
20140;SDS011;10231;47.702;9.826;2023-02-15T05:32:48;32.63;;;16.20;;
20140;SDS011;10231;47.702;9.826;2023-02-15T05:35:15;29.07;;;14.53;;
20140;SDS011;10231;47.702;9.826;2023-02-15T05:37:41;24.60;;;13.87;;
20140;SDS011;10231;47.702;9.826;2023-02-15T05:40:07;21.07;;;14.63;;
20140;SDS011;10231;47.702;9.826;2023-02-15T05:42:33;22.63;;;14.47;;
20140;SDS011;10231;47.702;9.826;2023-02-15T05:44:58;23.90;;;14.00;;
20140;SDS011;10231;47.702;9.826;2023-02-15T05:47:24;22.47;;;13.33;;
20140;SDS011;10231;47.702;9.826;2023-02-15T05:49:50;19.40;;;13.13;;
20140;SDS011;10231;47.702;9.826;2023-02-15T05:52:15;18.33;;;13.57;;
20140;SDS011;10231;47.702;9.826;2023-02-15T05:54:41;19.90;;;13.93;;
20140;SDS011;10231;47.702;9.826;2023-02-15T05:57:06;23.87;;;13.20;;
20140;SDS011;10231;47.702;9.826;2023-02-15T05:59:32;17.23;;;12.50;;
20140;SDS011;10231;47.702;9.826;2023-02-15T06:01:57;19.10;;;13.43;;
20140;SDS011;10231;47.702;9.826;2023-02-15T06:04:23;19.00;;;13.40;;
20140;SDS011;10231;47.702;9.826;2023-02-15T06:06:48;20.60;;;13.40;;
20140;SDS011;10231;47.702;9.826;2023-02-15T06:09:14;25.60;;;14.97;;
20140;SDS011;10231;47.702;9.826;2023-02-15T06:11:40;20.93;;;14.07;;
20140;SDS011;10231;47.702;9.826;2023-02-15T06:14:05;20.50;;;13.03;;
20140;SDS011;10231;47.702;9.826;2023-02-15T06:16:31;21.97;;;13.57;;
20140;SDS011;10231;47.702;9.826;2023-02-15T06:18:56;38.73;;;14.33;;
20140;SDS011;10231;47.702;9.826;2023-02-15T06:21:24;21.40;;;13.43;;
20140;SDS011;10231;47.702;9.826;2023-02-15T06:23:49;19.60;;;13.83;;
20140;SDS011;10231;47.702;9.826;2023-02-15T06:26:15;23.67;;;13.00;;
20140;SDS011;10231;47.702;9.826;2023-02-15T06:28:40;19.07;;;13.67;;
20140;SDS011;10231;47.702;9.826;2023-02-15T06:31:06;19.00;;;13.93;;
20140;SDS011;10231;47.702;9.826;2023-02-15T06:33:31;20.50;;;14.87;;
20140;SDS011;10231;47.702;9.826;2023-02-15T06:35:58;19.97;;;14.40;;
20140;SDS011;10231;47.702;9.826;2023-02-15T06:38:24;22.70;;;15.40;;
20140;SDS011;10231;47.702;9.826;2023-02-15T06:40:50;19.13;;;13.90;;
20140;SDS011;10231;47.702;9.826;2023-02-15T06:43:15;18.33;;;15.10;;
20140;SDS011;10231;47.702;9.826;2023-02-15T06:45:41;21.47;;;16.13;;
20140;SDS011;10231;47.702;9.826;2023-02-15T06:48:07;19.20;;;13.93;;
20140;SDS011;10231;47.702;9.826;2023-02-15T06:50:33;16.83;;;12.27;;
20140;SDS011;10231;47.702;9.826;2023-02-15T06:52:59;18.00;;;13.40;;
20140;SDS011;10231;47.702;9.826;2023-02-15T06:55:25;19.50;;;13.67;;
20140;SDS011;10231;47.702;9.826;2023-02-15T06:57:50;18.87;;;13.47;;
20140;SDS011;10231;47.702;9.826;2023-02-15T07:00:16;18.10;;;13.27;;
20140;SDS011;10231;47.702;9.826;2023-02-15T07:02:43;18.40;;;13.20;;
20140;SDS011;10231;47.702;9.826;2023-02-15T07:05:09;18.93;;;13.50;;
20140;SDS011;10231;47.702;9.826;2023-02-15T07:07:35;19.83;;;13.70;;
20140;SDS011;10231;47.702;9.826;2023-02-15T07:10:00;19.10;;;13.40;;
20140;SDS011;10231;47.702;9.826;2023-02-15T07:12:26;18.60;;;13.40;;
20140;SDS011;10231;47.702;9.826;2023-02-15T07:15:08;20.33;;;12.40;;
20140;SDS011;10231;47.702;9.826;2023-02-15T07:17:34;19.00;;;12.73;;
20140;SDS011;10231;47.702;9.826;2023-02-15T07:20:02;16.17;;;12.27;;
20140;SDS011;10231;47.702;9.826;2023-02-15T07:22:38;19.53;;;14.33;;
20140;SDS011;10231;47.702;9.826;2023-02-15T07:25:04;17.67;;;12.30;;
20140;SDS011;10231;47.702;9.826;2023-02-15T07:27:31;17.00;;;11.97;;
20140;SDS011;10231;47.702;9.826;2023-02-15T07:29:56;15.60;;;11.47;;
20140;SDS011;10231;47.702;9.826;2023-02-15T07:32:22;17.80;;;11.57;;
20140;SDS011;10231;47.702;9.826;2023-02-15T07:34:48;16.93;;;13.10;;
20140;SDS011;10231;47.702;9.826;2023-02-15T07:37:13;19.97;;;12.67;;
20140;SDS011;10231;47.702;9.826;2023-02-15T07:39:39;27.30;;;12.83;;
20140;SDS011;10231;47.702;9.826;2023-02-15T07:42:04;19.97;;;12.73;;
20140;SDS011;10231;47.702;9.826;2023-02-15T07:44:30;19.27;;;13.10;;
20140;SDS011;10231;47.702;9.826;2023-02-15T07:46:55;19.23;;;12.77;;
20140;SDS011;10231;47.702;9.826;2023-02-15T07:49:21;18.70;;;12.77;;
20140;SDS011;10231;47.702;9.826;2023-02-15T07:51:47;16.87;;;12.13;;
20140;SDS011;10231;47.702;9.826;2023-02-15T07:54:12;16.30;;;12.60;;
20140;SDS011;10231;47.702;9.826;2023-02-15T07:56:38;15.83;;;11.47;;
20140;SDS011;10231;47.702;9.826;2023-02-15T07:59:03;21.13;;;13.10;;
20140;SDS011;10231;47.702;9.826;2023-02-15T08:01:34;23.80;;;12.60;;
20140;SDS011;10231;47.702;9.826;2023-02-15T08:04:02;20.37;;;13.40;;
20140;SDS011;10231;47.702;9.826;2023-02-15T08:06:31;18.13;;;12.80;;
20140;SDS011;10231;47.702;9.826;2023-02-15T08:08:59;22.47;;;12.77;;
20140;SDS011;10231;47.702;9.826;2023-02-15T08:11:26;22.40;;;13.90;;
20140;SDS011;10231;47.702;9.826;2023-02-15T08:16:53;19.67;;;13.33;;
20140;SDS011;10231;47.702;9.826;2023-02-15T08:19:25;19.77;;;13.57;;
20140;SDS011;10231;47.702;9.826;2023-02-15T08:21:56;20.63;;;13.20;;
20140;SDS011;10231;47.702;9.826;2023-02-15T08:24:22;19.37;;;14.50;;
20140;SDS011;10231;47.702;9.826;2023-02-15T08:26:50;18.93;;;14.00;;
20140;SDS011;10231;47.702;9.826;2023-02-15T08:29:17;19.23;;;14.33;;
20140;SDS011;10231;47.702;9.826;2023-02-15T08:31:46;17.93;;;13.13;;
20140;SDS011;10231;47.702;9.826;2023-02-15T08:34:13;21.33;;;14.07;;
20140;SDS011;10231;47.702;9.826;2023-02-15T08:36:41;18.73;;;14.07;;
20140;SDS011;10231;47.702;9.826;2023-02-15T08:39:07;17.87;;;13.93;;
20140;SDS011;10231;47.702;9.826;2023-02-15T08:41:36;22.60;;;15.17;;
20140;SDS011;10231;47.702;9.826;2023-02-15T08:44:03;19.20;;;14.40;;
20140;SDS011;10231;47.702;9.826;2023-02-15T08:46:34;18.67;;;14.23;;
20140;SDS011;10231;47.702;9.826;2023-02-15T08:49:01;22.00;;;16.67;;
20140;SDS011;10231;47.702;9.826;2023-02-15T08:51:28;19.33;;;15.10;;
20140;SDS011;10231;47.702;9.826;2023-02-15T08:53:57;19.10;;;15.60;;
20140;SDS011;10231;47.702;9.826;2023-02-15T08:56:25;21.20;;;15.93;;
20140;SDS011;10231;47.702;9.826;2023-02-15T08:58:53;22.83;;;17.27;;
20140;SDS011;10231;47.702;9.826;2023-02-15T09:01:21;19.70;;;15.03;;
20140;SDS011;10231;47.702;9.826;2023-02-15T09:03:50;19.03;;;14.47;;
20140;SDS011;10231;47.702;9.826;2023-02-15T09:06:20;19.13;;;14.43;;
20140;SDS011;10231;47.702;9.826;2023-02-15T09:08:47;19.83;;;14.50;;
20140;SDS011;10231;47.702;9.826;2023-02-15T09:11:17;18.97;;;14.03;;
20140;SDS011;10231;47.702;9.826;2023-02-15T09:13:52;17.00;;;13.67;;
20140;SDS011;10231;47.702;9.826;2023-02-15T09:16:18;18.80;;;13.17;;
20140;SDS011;10231;47.702;9.826;2023-02-15T09:18:45;17.20;;;13.20;;
20140;SDS011;10231;47.702;9.826;2023-02-15T09:21:15;19.30;;;13.20;;
20140;SDS011;10231;47.702;9.826;2023-02-15T09:23:42;17.13;;;12.87;;
20140;SDS011;10231;47.702;9.826;2023-02-15T09:26:10;17.80;;;12.80;;
20140;SDS011;10231;47.702;9.826;2023-02-15T09:28:38;15.93;;;11.90;;
20140;SDS011;10231;47.702;9.826;2023-02-15T09:31:05;18.07;;;13.67;;
20140;SDS011;10231;47.702;9.826;2023-02-15T09:33:36;17.97;;;13.33;;
20140;SDS011;10231;47.702;9.826;2023-02-15T09:36:03;15.30;;;11.63;;
20140;SDS011;10231;47.702;9.826;2023-02-15T09:38:29;17.20;;;11.83;;
20140;SDS011;10231;47.702;9.826;2023-02-15T09:40:59;16.00;;;12.33;;
20140;SDS011;10231;47.702;9.826;2023-02-15T09:43:38;18.80;;;12.23;;
20140;SDS011;10231;47.702;9.826;2023-02-15T09:48:57;18.13;;;13.33;;
20140;SDS011;10231;47.702;9.826;2023-02-15T09:51:36;19.30;;;13.13;;
20140;SDS011;10231;47.702;9.826;2023-02-15T09:54:25;18.43;;;13.17;;
20140;SDS011;10231;47.702;9.826;2023-02-15T09:56:57;15.83;;;12.10;;
20140;SDS011;10231;47.702;9.826;2023-02-15T10:02:26;16.77;;;12.33;;
20140;SDS011;10231;47.702;9.826;2023-02-15T10:07:35;17.13;;;11.83;;
20140;SDS011;10231;47.702;9.826;2023-02-15T10:10:24;15.40;;;12.47;;
20140;SDS011;10231;47.702;9.826;2023-02-15T10:18:55;15.40;;;11.00;;
20140;SDS011;10231;47.702;9.826;2023-02-15T10:26:56;13.03;;;10.20;;
20140;SDS011;10231;47.702;9.826;2023-02-15T10:29:35;16.20;;;10.57;;
20140;SDS011;10231;47.702;9.826;2023-02-15T10:34:38;13.53;;;10.53;;
20140;SDS011;10231;47.702;9.826;2023-02-15T10:41:02;15.77;;;11.93;;
20140;SDS011;10231;47.702;9.826;2023-02-15T10:48:50;13.57;;;10.33;;
20140;SDS011;10231;47.702;9.826;2023-02-15T10:51:39;14.27;;;10.23;;
20140;SDS011;10231;47.702;9.826;2023-02-15T10:54:25;13.13;;;8.17;;
20140;SDS011;10231;47.702;9.826;2023-02-15T10:57:17;12.53;;;9.10;;
20140;SDS011;10231;47.702;9.826;2023-02-15T11:02:39;14.33;;;9.50;;
20140;SDS011;10231;47.702;9.826;2023-02-15T11:05:41;13.07;;;9.60;;
20140;SDS011;10231;47.702;9.826;2023-02-15T11:08:15;11.83;;;8.67;;
20140;SDS011;10231;47.702;9.826;2023-02-15T11:10:47;11.80;;;9.17;;
20140;SDS011;10231;47.702;9.826;2023-02-15T11:13:18;11.40;;;9.80;;
20140;SDS011;10231;47.702;9.826;2023-02-15T11:15:53;13.00;;;9.83;;
20140;SDS011;10231;47.702;9.826;2023-02-15T11:18:27;12.73;;;9.73;;
20140;SDS011;10231;47.702;9.826;2023-02-15T11:21:10;13.20;;;9.63;;
20140;SDS011;10231;47.702;9.826;2023-02-15T11:23:51;11.87;;;9.33;;
20140;SDS011;10231;47.702;9.826;2023-02-15T11:26:28;12.00;;;9.33;;
20140;SDS011;10231;47.702;9.826;2023-02-15T11:29:09;12.77;;;9.43;;
20140;SDS011;10231;47.702;9.826;2023-02-15T11:31:46;13.07;;;9.77;;
20140;SDS011;10231;47.702;9.826;2023-02-15T11:34:20;16.17;;;9.83;;
20140;SDS011;10231;47.702;9.826;2023-02-15T11:36:52;14.53;;;10.00;;
20140;SDS011;10231;47.702;9.826;2023-02-15T11:39:20;13.23;;;10.03;;
20140;SDS011;10231;47.702;9.826;2023-02-15T11:41:48;11.70;;;9.40;;
20140;SDS011;10231;47.702;9.826;2023-02-15T11:44:29;12.03;;;9.10;;
20140;SDS011;10231;47.702;9.826;2023-02-15T11:46:59;12.27;;;9.10;;
20140;SDS011;10231;47.702;9.826;2023-02-15T11:49:31;13.67;;;9.60;;
20140;SDS011;10231;47.702;9.826;2023-02-15T11:51:58;11.57;;;9.27;;
20140;SDS011;10231;47.702;9.826;2023-02-15T11:54:36;13.93;;;10.40;;
20140;SDS011;10231;47.702;9.826;2023-02-15T11:57:17;16.00;;;10.43;;
20140;SDS011;10231;47.702;9.826;2023-02-15T12:02:45;12.47;;;9.33;;
20140;SDS011;10231;47.702;9.826;2023-02-15T12:05:16;14.10;;;9.67;;
20140;SDS011;10231;47.702;9.826;2023-02-15T12:07:46;13.20;;;9.93;;
20140;SDS011;10231;47.702;9.826;2023-02-15T12:10:58;13.27;;;9.10;;
20140;SDS011;10231;47.702;9.826;2023-02-15T12:13:16;13.53;;;9.03;;
20140;SDS011;10231;47.702;9.826;2023-02-15T12:15:45;13.33;;;9.87;;
20140;SDS011;10231;47.702;9.826;2023-02-15T12:18:21;10.80;;;8.10;;
20140;SDS011;10231;47.702;9.826;2023-02-15T12:21:08;10.77;;;8.53;;
20140;SDS011;10231;47.702;9.826;2023-02-15T12:23:53;10.77;;;8.53;;
20140;SDS011;10231;47.702;9.826;2023-02-15T12:26:42;13.97;;;8.90;;
20140;SDS011;10231;47.702;9.826;2023-02-15T12:29:17;11.47;;;8.83;;
20140;SDS011;10231;47.702;9.826;2023-02-15T12:31:46;11.97;;;9.03;;
20140;SDS011;10231;47.702;9.826;2023-02-15T12:34:48;13.40;;;8.67;;
20140;SDS011;10231;47.702;9.826;2023-02-15T12:37:15;15.30;;;8.90;;
20140;SDS011;10231;47.702;9.826;2023-02-15T12:42:42;13.90;;;8.83;;
20140;SDS011;10231;47.702;9.826;2023-02-15T12:50:46;13.80;;;8.50;;
20140;SDS011;10231;47.702;9.826;2023-02-15T12:53:17;12.90;;;9.13;;
20140;SDS011;10231;47.702;9.826;2023-02-15T12:55:57;10.97;;;8.27;;
20140;SDS011;10231;47.702;9.826;2023-02-15T12:58:25;11.90;;;8.77;;
20140;SDS011;10231;47.702;9.826;2023-02-15T13:03:57;12.60;;;8.57;;
20140;SDS011;10231;47.702;9.826;2023-02-15T13:06:26;10.17;;;7.60;;
20140;SDS011;10231;47.702;9.826;2023-02-15T13:08:54;10.40;;;8.37;;
20140;SDS011;10231;47.702;9.826;2023-02-15T13:11:29;9.73;;;7.77;;
20140;SDS011;10231;47.702;9.826;2023-02-15T13:14:22;10.47;;;7.90;;
20140;SDS011;10231;47.702;9.826;2023-02-15T13:16:56;11.67;;;8.50;;
20140;SDS011;10231;47.702;9.826;2023-02-15T13:19:34;11.80;;;8.50;;
20140;SDS011;10231;47.702;9.826;2023-02-15T13:22:15;11.03;;;7.90;;
20140;SDS011;10231;47.702;9.826;2023-02-15T13:24:47;9.80;;;8.43;;
20140;SDS011;10231;47.702;9.826;2023-02-15T13:27:17;12.17;;;8.43;;
20140;SDS011;10231;47.702;9.826;2023-02-15T13:30:11;11.97;;;9.20;;
20140;SDS011;10231;47.702;9.826;2023-02-15T13:32:54;13.00;;;9.93;;
20140;SDS011;10231;47.702;9.826;2023-02-15T13:35:23;13.00;;;9.47;;
20140;SDS011;10231;47.702;9.826;2023-02-15T13:37:58;13.83;;;9.63;;
20140;SDS011;10231;47.702;9.826;2023-02-15T13:40:46;11.73;;;9.80;;
20140;SDS011;10231;47.702;9.826;2023-02-15T13:54:28;11.77;;;8.60;;
20140;SDS011;10231;47.702;9.826;2023-02-15T14:03:04;10.80;;;8.17;;
20140;SDS011;10231;47.702;9.826;2023-02-15T14:05:49;10.73;;;8.30;;
20140;SDS011;10231;47.702;9.826;2023-02-15T14:08:45;10.70;;;9.27;;
20140;SDS011;10231;47.702;9.826;2023-02-15T14:14:11;10.97;;;8.47;;
20140;SDS011;10231;47.702;9.826;2023-02-15T14:19:44;13.30;;;9.20;;
20140;SDS011;10231;47.702;9.826;2023-02-15T14:30:38;11.87;;;8.83;;
20140;SDS011;10231;47.702;9.826;2023-02-15T14:35:46;13.27;;;9.87;;
20140;SDS011;10231;47.702;9.826;2023-02-15T14:38:32;12.90;;;9.80;;
20140;SDS011;10231;47.702;9.826;2023-02-15T14:41:12;14.33;;;8.90;;
20140;SDS011;10231;47.702;9.826;2023-02-15T14:44:05;12.43;;;9.37;;
20140;SDS011;10231;47.702;9.826;2023-02-15T14:46:50;12.07;;;9.27;;
20140;SDS011;10231;47.702;9.826;2023-02-15T14:49:31;15.20;;;10.63;;
20140;SDS011;10231;47.702;9.826;2023-02-15T14:52:02;14.47;;;10.90;;
20140;SDS011;10231;47.702;9.826;2023-02-15T14:59:38;14.93;;;11.40;;
20140;SDS011;10231;47.702;9.826;2023-02-15T15:02:18;22.43;;;14.30;;
20140;SDS011;10231;47.702;9.826;2023-02-15T15:08:20;21.10;;;15.20;;
20140;SDS011;10231;47.702;9.826;2023-02-15T15:12:59;20.20;;;14.17;;
20140;SDS011;10231;47.702;9.826;2023-02-15T15:15:56;22.23;;;15.43;;
20140;SDS011;10231;47.702;9.826;2023-02-15T15:18:48;23.63;;;15.50;;
20140;SDS011;10231;47.702;9.826;2023-02-15T15:24:45;27.53;;;17.07;;
20140;SDS011;10231;47.702;9.826;2023-02-15T15:47:10;27.50;;;18.13;;
20140;SDS011;10231;47.702;9.826;2023-02-15T15:49:34;27.93;;;17.67;;
20140;SDS011;10231;47.702;9.826;2023-02-15T15:52:02;26.87;;;17.50;;
20140;SDS011;10231;47.702;9.826;2023-02-15T15:54:42;24.27;;;17.07;;
20140;SDS011;10231;47.702;9.826;2023-02-15T15:57:15;26.90;;;18.70;;
20140;SDS011;10231;47.702;9.826;2023-02-15T15:59:47;25.90;;;17.17;;
20140;SDS011;10231;47.702;9.826;2023-02-15T16:02:14;31.10;;;18.97;;
20140;SDS011;10231;47.702;9.826;2023-02-15T16:04:42;25.17;;;17.70;;
20140;SDS011;10231;47.702;9.826;2023-02-15T16:09:53;22.67;;;16.40;;
20140;SDS011;10231;47.702;9.826;2023-02-15T16:12:21;26.20;;;16.70;;
20140;SDS011;10231;47.702;9.826;2023-02-15T16:14:46;22.93;;;17.57;;
20140;SDS011;10231;47.702;9.826;2023-02-15T16:17:33;23.80;;;16.80;;
20140;SDS011;10231;47.702;9.826;2023-02-15T16:20:18;23.83;;;16.97;;
20140;SDS011;10231;47.702;9.826;2023-02-15T16:23:34;27.27;;;19.20;;
20140;SDS011;10231;47.702;9.826;2023-02-15T16:26:18;27.57;;;20.40;;
20140;SDS011;10231;47.702;9.826;2023-02-15T16:28:57;29.83;;;20.43;;
20140;SDS011;10231;47.702;9.826;2023-02-15T16:31:24;30.67;;;20.43;;
20140;SDS011;10231;47.702;9.826;2023-02-15T16:33:52;27.37;;;19.80;;
20140;SDS011;10231;47.702;9.826;2023-02-15T16:36:20;27.67;;;19.20;;
20140;SDS011;10231;47.702;9.826;2023-02-15T16:43:56;28.67;;;20.70;;
20140;SDS011;10231;47.702;9.826;2023-02-15T16:46:43;31.07;;;19.57;;
20140;SDS011;10231;47.702;9.826;2023-02-15T16:49:15;31.53;;;20.23;;
20140;SDS011;10231;47.702;9.826;2023-02-15T16:51:44;31.10;;;20.63;;
20140;SDS011;10231;47.702;9.826;2023-02-15T16:54:19;27.67;;;18.77;;
20140;SDS011;10231;47.702;9.826;2023-02-15T16:56:47;30.07;;;19.33;;
20140;SDS011;10231;47.702;9.826;2023-02-15T16:59:30;30.57;;;19.97;;
20140;SDS011;10231;47.702;9.826;2023-02-15T17:02:30;29.47;;;18.90;;
20140;SDS011;10231;47.702;9.826;2023-02-15T17:05:02;29.47;;;19.13;;
20140;SDS011;10231;47.702;9.826;2023-02-15T17:07:39;30.23;;;20.50;;
20140;SDS011;10231;47.702;9.826;2023-02-15T17:10:25;30.77;;;20.50;;
20140;SDS011;10231;47.702;9.826;2023-02-15T17:12:54;31.27;;;20.60;;
20140;SDS011;10231;47.702;9.826;2023-02-15T17:15:26;30.13;;;20.20;;
20140;SDS011;10231;47.702;9.826;2023-02-15T17:17:55;31.07;;;20.70;;
20140;SDS011;10231;47.702;9.826;2023-02-15T17:20:45;34.93;;;23.43;;
20140;SDS011;10231;47.702;9.826;2023-02-15T17:25:58;32.80;;;23.80;;
20140;SDS011;10231;47.702;9.826;2023-02-15T17:28:27;33.63;;;24.53;;